createdAt,value
2022-10-15T00:01:53.239Z,12.63
2022-10-15T00:04:54.589Z,12.63
2022-10-15T00:07:55.998Z,12.64
2022-10-15T00:11:06.213Z,12.65
2022-10-15T00:14:07.587Z,12.65
2022-10-15T00:17:08.963Z,12.65
2022-10-15T00:20:11.047Z,12.67
2022-10-15T00:23:12.382Z,12.68
2022-10-15T00:26:20.541Z,12.70
2022-10-15T00:29:22.170Z,12.70
2022-10-15T00:32:27.322Z,12.70
2022-10-15T00:35:28.715Z,12.69
2022-10-15T00:38:30.910Z,12.71
2022-10-15T00:41:42.227Z,12.68
2022-10-15T00:44:54.197Z,12.69
2022-10-15T00:47:55.922Z,12.68
2022-10-15T00:51:02.029Z,12.68
2022-10-15T00:54:03.760Z,12.67
2022-10-15T00:57:06.899Z,12.67
2022-10-15T01:00:10.063Z,12.45
2022-10-15T01:03:14.095Z,12.57
2022-10-15T01:06:15.464Z,12.57
2022-10-15T01:09:17.042Z,12.55
2022-10-15T01:12:48.976Z,12.47
2022-10-15T01:15:59.751Z,12.44
2022-10-15T01:19:17.200Z,12.45
2022-10-15T01:22:27.360Z,12.44
2022-10-15T01:25:50.656Z,12.47
2022-10-15T01:29:18.481Z,12.43
2022-10-15T01:32:57.620Z,12.40
2022-10-15T01:36:14.356Z,12.39
2022-10-15T01:39:29.696Z,12.37
2022-10-15T01:42:38.849Z,12.35
2022-10-15T01:45:49.004Z,12.33
2022-10-15T01:49:13.430Z,12.27
2022-10-15T01:52:21.360Z,12.28
2022-10-15T01:55:26.062Z,12.26
2022-10-15T01:58:29.773Z,12.24
2022-10-15T02:01:31.411Z,12.21
2022-10-15T02:04:33.393Z,12.20
2022-10-15T02:07:49.170Z,12.18
2022-10-15T02:11:04.942Z,12.13
2022-10-15T02:14:15.437Z,12.13
2022-10-15T02:17:19.474Z,12.05
2022-10-15T02:20:28.707Z,12.00
2022-10-15T02:23:51.346Z,11.88
2022-10-15T02:26:56.743Z,11.83
2022-10-15T02:30:00.019Z,11.74
2022-10-15T02:33:01.324Z,11.48
2022-10-15T02:36:03.170Z,11.63
2022-10-15T02:39:10.396Z,11.69
2022-10-15T02:42:16.392Z,11.73
2022-10-15T02:45:17.843Z,11.73
2022-10-15T02:48:19.300Z,11.73
2022-10-15T02:51:22.048Z,11.72
2022-10-15T02:54:23.404Z,11.75
2022-10-15T02:57:25.171Z,11.75
2022-10-15T03:00:26.984Z,11.76
2022-10-15T03:03:28.363Z,11.76
2022-10-15T03:06:29.819Z,11.76
2022-10-15T03:09:31.402Z,11.75
2022-10-15T03:12:33.208Z,11.70
2022-10-15T03:15:36.672Z,11.69
2022-10-15T03:18:40.645Z,11.69
2022-10-15T03:21:43.937Z,11.69
2022-10-15T03:24:48.773Z,11.71
2022-10-15T03:27:54.944Z,11.69
2022-10-15T03:31:03.408Z,11.64
2022-10-15T03:34:04.800Z,11.65
2022-10-15T03:37:06.997Z,11.64
2022-10-15T03:40:13.612Z,11.59
2022-10-15T03:43:16.262Z,11.61
2022-10-15T03:46:17.801Z,11.62
2022-10-15T03:49:21.157Z,11.61
2022-10-15T03:52:23.276Z,11.63
2022-10-15T03:55:27.673Z,11.63
2022-10-15T03:58:29.175Z,11.63
2022-10-15T04:01:33.737Z,11.61
2022-10-15T04:04:36.235Z,11.58
2022-10-15T04:07:37.777Z,11.62
2022-10-15T04:10:41.351Z,11.62
2022-10-15T04:13:42.822Z,11.62
2022-10-15T04:16:44.978Z,11.60
2022-10-15T04:19:51.953Z,11.58
2022-10-15T04:22:56.031Z,11.53
2022-10-15T04:25:59.867Z,11.52
2022-10-15T04:29:01.285Z,11.48
2022-10-15T04:32:04.056Z,11.47
2022-10-15T04:35:06.467Z,11.48
2022-10-15T04:38:23.467Z,11.49
2022-10-15T04:41:36.220Z,11.48
2022-10-15T04:44:41.691Z,11.46
2022-10-15T04:47:44.324Z,11.48
2022-10-15T04:50:48.716Z,11.48
2022-10-15T04:53:54.849Z,11.47
2022-10-15T04:56:56.299Z,11.45
2022-10-15T04:59:58.069Z,11.46
2022-10-15T05:03:08.549Z,11.45
2022-10-15T05:06:22.280Z,11.43
2022-10-15T05:09:28.813Z,11.44
2022-10-15T05:12:32.523Z,11.48
2022-10-15T05:15:33.977Z,11.49
2022-10-15T05:18:36.824Z,11.47
2022-10-15T05:21:38.689Z,11.48
2022-10-15T05:24:47.850Z,11.46
2022-10-15T05:28:00.225Z,11.47
2022-10-15T05:31:11.830Z,11.48
2022-10-15T05:34:16.365Z,11.49
2022-10-15T05:37:40.647Z,11.47
2022-10-15T05:40:47.905Z,11.47
2022-10-15T05:43:55.338Z,11.48
2022-10-15T05:47:00.194Z,11.46
2022-10-15T05:50:02.603Z,11.46
2022-10-15T05:53:07.251Z,11.48
2022-10-15T05:56:28.854Z,11.48
2022-10-15T05:59:30.179Z,11.48
2022-10-15T06:02:31.635Z,11.51
2022-10-15T06:05:33.146Z,11.51
2022-10-15T06:08:34.537Z,11.53
2022-10-15T06:11:36.348Z,11.53
2022-10-15T06:14:37.699Z,11.55
2022-10-15T06:17:41.439Z,11.57
2022-10-15T06:20:43.747Z,11.56
2022-10-15T06:23:45.094Z,11.54
2022-10-15T06:26:46.439Z,11.56
2022-10-15T06:29:47.782Z,11.55
2022-10-15T06:32:53.404Z,11.57
2022-10-15T06:35:55.110Z,11.57
2022-10-15T06:38:56.462Z,11.53
2022-10-15T06:41:57.788Z,11.53
2022-10-15T06:45:11.886Z,11.51
2022-10-15T06:48:13.213Z,11.49
2022-10-15T06:51:14.550Z,11.51
2022-10-15T06:54:21.870Z,11.56
2022-10-15T06:57:23.869Z,11.56
2022-10-15T07:00:26.643Z,11.57
2022-10-15T07:03:28.760Z,11.59
2022-10-15T07:06:30.099Z,11.61
2022-10-15T07:09:31.482Z,11.62
2022-10-15T07:12:33.183Z,11.66
2022-10-15T07:15:34.506Z,11.65
2022-10-15T07:18:36.583Z,11.68
2022-10-15T07:21:37.919Z,11.68
2022-10-15T07:24:39.249Z,11.62
2022-10-15T07:27:40.640Z,11.61
2022-10-15T07:30:41.968Z,11.63
2022-10-15T07:33:43.295Z,11.65
2022-10-15T07:36:44.707Z,11.66
2022-10-15T07:39:46.021Z,11.69
2022-10-15T07:42:58.004Z,11.71
2022-10-15T07:46:05.740Z,11.75
2022-10-15T07:49:07.076Z,11.83
2022-10-15T07:52:08.434Z,11.84
2022-10-15T07:55:09.876Z,11.88
2022-10-15T07:58:11.200Z,12.01
2022-10-15T08:01:12.549Z,12.01
2022-10-15T08:04:13.881Z,11.95
2022-10-15T08:07:16.781Z,11.88
2022-10-15T08:10:18.262Z,12.00
2022-10-15T08:13:19.609Z,12.12
2022-10-15T08:16:23.737Z,12.36
2022-10-15T08:19:34.045Z,12.70
2022-10-15T08:22:35.709Z,13.03
2022-10-15T08:25:37.159Z,13.33
2022-10-15T08:28:38.651Z,13.53
2022-10-15T08:31:40.122Z,13.94
2022-10-15T08:34:41.577Z,13.90
2022-10-15T08:37:42.918Z,13.79
2022-10-15T08:40:53.466Z,13.54
2022-10-15T08:43:54.906Z,13.81
2022-10-15T08:47:06.166Z,13.70
2022-10-15T08:50:20.763Z,13.61
2022-10-15T08:53:25.079Z,13.97
2022-10-15T08:56:39.091Z,14.34
2022-10-15T08:59:49.347Z,14.47
2022-10-15T09:02:58.758Z,14.34
2022-10-15T09:06:15.073Z,14.29
2022-10-15T09:09:26.171Z,14.59
2022-10-15T09:12:42.396Z,14.58
2022-10-15T09:16:05.189Z,14.84
2022-10-15T09:19:14.932Z,14.89
2022-10-15T09:22:18.863Z,14.90
2022-10-15T09:25:27.604Z,15.09
2022-10-15T09:28:46.256Z,15.08
2022-10-15T09:32:07.764Z,14.87
2022-10-15T09:35:26.181Z,15.02
2022-10-15T09:38:49.526Z,15.00
2022-10-15T09:42:07.388Z,15.33
2022-10-15T09:45:14.649Z,15.31
2022-10-15T09:48:19.419Z,15.35
2022-10-15T09:51:33.502Z,15.29
2022-10-15T09:54:40.909Z,15.47
2022-10-15T09:57:46.993Z,15.67
2022-10-15T10:00:54.823Z,15.30
2022-10-15T10:04:17.457Z,15.43
2022-10-15T10:07:28.058Z,15.46
2022-10-15T10:10:30.483Z,15.64
2022-10-15T10:13:39.418Z,15.70
2022-10-15T10:17:20.104Z,15.76
2022-10-15T10:20:27.617Z,16.04
2022-10-15T10:23:30.670Z,16.03
2022-10-15T10:26:34.806Z,15.93
2022-10-15T10:29:39.887Z,15.65
2022-10-15T10:32:41.366Z,15.57
2022-10-15T10:35:49.010Z,15.56
2022-10-15T10:39:24.843Z,15.61
2022-10-15T10:42:26.118Z,15.85
2022-10-15T10:45:27.550Z,15.59
2022-10-15T10:48:50.082Z,15.58
2022-10-15T10:51:51.607Z,15.62
2022-10-15T10:55:20.489Z,15.69
2022-10-15T10:58:26.368Z,15.51
2022-10-15T11:01:29.284Z,15.51
2022-10-15T11:04:34.117Z,15.53
2022-10-15T11:08:00.651Z,15.46
2022-10-15T11:11:10.576Z,15.64
2022-10-15T11:14:49.743Z,15.81
2022-10-15T11:18:04.647Z,15.87
2022-10-15T11:21:39.739Z,16.02
2022-10-15T11:25:05.916Z,16.02
2022-10-15T11:28:29.539Z,15.90
2022-10-15T11:32:25.906Z,15.63
2022-10-15T11:35:52.838Z,15.81
2022-10-15T11:39:01.950Z,16.01
2022-10-15T11:42:06.228Z,16.24
2022-10-15T11:45:29.282Z,16.17
2022-10-15T11:48:39.800Z,16.37
2022-10-15T11:52:23.843Z,16.27
2022-10-15T11:55:31.449Z,16.26
2022-10-15T11:58:43.902Z,16.32
2022-10-15T12:01:49.812Z,16.30
2022-10-15T12:05:00.377Z,16.27
2022-10-15T12:11:18.126Z,16.45
2022-10-15T12:14:28.525Z,16.37
2022-10-15T12:17:36.001Z,16.53
2022-10-15T12:20:37.375Z,16.55
2022-10-15T12:23:40.849Z,16.46
2022-10-15T12:26:42.231Z,16.32
2022-10-15T12:29:43.633Z,16.36
2022-10-15T12:32:46.917Z,16.36
2022-10-15T12:36:19.794Z,16.51
2022-10-15T12:39:47.692Z,16.63
2022-10-15T12:42:50.699Z,16.79
2022-10-15T12:46:01.144Z,16.61
2022-10-15T12:49:25.867Z,16.51
2022-10-15T12:52:49.259Z,16.53
2022-10-15T12:56:09.472Z,16.80
2022-10-15T12:59:54.134Z,16.79
2022-10-15T13:02:57.423Z,16.92
2022-10-15T13:06:26.463Z,16.75
2022-10-15T13:09:30.274Z,16.69
2022-10-15T13:12:32.047Z,16.50
2022-10-15T13:15:34.519Z,16.45
2022-10-15T13:18:36.225Z,16.54
2022-10-15T13:22:19.692Z,16.43
2022-10-15T13:25:21.130Z,16.39
2022-10-15T13:28:31.037Z,16.49
2022-10-15T13:31:36.455Z,16.71
2022-10-15T13:34:38.088Z,16.63
2022-10-15T13:37:42.820Z,16.55
2022-10-15T13:40:48.458Z,16.48
2022-10-15T13:43:54.021Z,16.38
2022-10-15T13:46:55.384Z,16.27
2022-10-15T13:50:18.260Z,16.24
2022-10-15T13:53:30.666Z,16.22
2022-10-15T13:56:32.780Z,16.17
2022-10-15T13:59:34.669Z,16.33
2022-10-15T14:02:36.041Z,16.28
2022-10-15T14:05:37.368Z,16.27
2022-10-15T14:08:38.698Z,16.21
2022-10-15T14:11:40.168Z,16.02
2022-10-15T14:14:44.497Z,15.98
2022-10-15T14:17:51.713Z,15.91
2022-10-15T14:20:53.974Z,15.90
2022-10-15T14:24:07.338Z,16.02
2022-10-15T14:27:17.209Z,15.94
2022-10-15T14:30:32.842Z,16.02
2022-10-15T14:33:37.242Z,15.98
2022-10-15T14:36:42.532Z,15.89
2022-10-15T14:39:48.014Z,15.85
2022-10-15T14:43:02.971Z,15.87
2022-10-15T14:46:16.622Z,15.86
2022-10-15T14:49:35.915Z,15.79
2022-10-15T14:52:37.630Z,15.88
2022-10-15T14:55:43.484Z,15.86
2022-10-15T14:58:51.817Z,15.93
2022-10-15T15:01:58.532Z,15.86
2022-10-15T15:05:12.315Z,15.79
2022-10-15T15:08:13.792Z,15.71
2022-10-15T15:11:19.138Z,15.73
2022-10-15T15:14:25.975Z,15.69
2022-10-15T15:17:29.427Z,15.60
2022-10-15T15:20:30.879Z,15.58
2022-10-15T15:23:32.919Z,15.61
2022-10-15T15:26:34.308Z,15.53
2022-10-15T15:29:35.675Z,15.48
2022-10-15T15:32:37.005Z,15.51
2022-10-15T15:35:49.905Z,15.52
2022-10-15T15:38:51.468Z,15.44
2022-10-15T15:41:52.862Z,15.37
2022-10-15T15:44:54.209Z,15.22
2022-10-15T15:47:55.774Z,14.99
2022-10-15T15:51:01.635Z,14.68
2022-10-15T15:54:03.151Z,14.79
2022-10-15T15:57:04.531Z,14.76
2022-10-15T16:00:07.738Z,14.76
2022-10-15T16:03:13.022Z,14.68
2022-10-15T16:06:14.548Z,14.60
2022-10-15T16:09:19.683Z,14.61
2022-10-15T16:12:21.075Z,14.53
2022-10-15T16:15:22.421Z,14.44
2022-10-15T16:18:24.143Z,14.36
2022-10-15T16:21:26.380Z,14.32
2022-10-15T16:24:27.890Z,14.25
2022-10-15T16:27:29.219Z,14.25
2022-10-15T16:30:30.831Z,14.24
2022-10-15T16:33:32.184Z,14.19
2022-10-15T16:36:33.513Z,14.14
2022-10-15T16:39:34.861Z,14.16
2022-10-15T16:42:36.215Z,14.14
2022-10-15T16:45:37.569Z,14.11
2022-10-15T16:48:38.952Z,14.05
2022-10-15T16:51:42.864Z,14.00
2022-10-15T16:54:45.184Z,13.95
2022-10-15T16:57:46.505Z,13.95
2022-10-15T17:00:47.849Z,13.97
2022-10-15T17:03:49.182Z,13.97
2022-10-15T17:06:50.517Z,13.97
2022-10-15T17:09:51.894Z,13.93
2022-10-15T17:12:53.253Z,13.89
2022-10-15T17:15:56.901Z,13.90
2022-10-15T17:19:01.983Z,13.91
2022-10-15T17:22:03.575Z,13.91
2022-10-15T17:25:05.443Z,13.92
2022-10-15T17:28:10.256Z,13.90
2022-10-15T17:31:16.755Z,13.91
2022-10-15T17:34:18.421Z,13.89
2022-10-15T17:37:19.810Z,13.89
2022-10-15T17:40:21.320Z,13.94
2022-10-15T17:43:22.702Z,13.99
2022-10-15T17:46:27.194Z,14.03
2022-10-15T17:49:28.676Z,14.01
2022-10-15T17:52:29.995Z,13.99
2022-10-15T17:55:31.359Z,14.00
2022-10-15T17:58:35.306Z,14.03
2022-10-15T18:01:57.772Z,14.07
2022-10-15T18:05:00.492Z,14.05
2022-10-15T18:08:02.047Z,14.10
2022-10-15T18:11:04.622Z,14.11
2022-10-15T18:14:06.764Z,14.11
2022-10-15T18:17:08.198Z,14.17
2022-10-15T18:20:09.930Z,14.22
2022-10-15T18:23:12.280Z,14.25
2022-10-15T18:26:19.989Z,14.27
2022-10-15T18:29:21.381Z,14.29
2022-10-15T18:32:22.759Z,14.30
2022-10-15T18:35:24.128Z,14.28
2022-10-15T18:38:25.457Z,14.29
2022-10-15T18:41:30.099Z,14.30
2022-10-15T18:44:31.496Z,14.31
2022-10-15T18:47:32.878Z,14.31
2022-10-15T18:50:34.247Z,14.27
2022-10-15T18:53:39.841Z,14.21
2022-10-15T18:56:41.236Z,14.14
2022-10-15T18:59:42.655Z,14.08
2022-10-15T19:02:44.038Z,14.04
2022-10-15T19:05:45.366Z,14.01
2022-10-15T19:08:47.238Z,14.02
2022-10-15T19:11:50.953Z,13.98
2022-10-15T19:14:52.310Z,13.91
2022-10-15T19:17:54.066Z,13.89
2022-10-15T19:20:55.973Z,13.90
2022-10-15T19:23:57.345Z,13.92
2022-10-15T19:26:58.749Z,13.89
2022-10-15T19:30:00.149Z,13.88
2022-10-15T19:33:01.738Z,13.93
2022-10-15T19:36:03.556Z,14.01
2022-10-15T19:39:18.320Z,14.08
2022-10-15T19:42:19.687Z,14.11
2022-10-15T19:45:21.027Z,14.14
2022-10-15T19:48:22.405Z,14.17
2022-10-15T19:51:23.731Z,14.22
2022-10-15T19:57:31.399Z,14.25
2022-10-15T20:00:33.615Z,14.26
2022-10-15T20:06:39.407Z,14.21
2022-10-15T20:09:40.922Z,14.17
2022-10-15T20:12:42.364Z,14.13
2022-10-15T20:15:45.428Z,14.08
2022-10-15T20:18:46.809Z,14.01
2022-10-15T20:24:50.537Z,13.89
2022-10-15T20:27:51.876Z,13.88
2022-10-15T20:34:01.171Z,13.84
2022-10-15T20:37:02.533Z,13.81
2022-10-15T20:40:04.578Z,13.77
2022-10-15T20:43:05.924Z,13.76
2022-10-15T20:46:13.857Z,13.76
2022-10-15T20:49:19.090Z,13.70
2022-10-15T20:52:22.232Z,13.64
2022-10-15T20:55:24.201Z,13.38
2022-10-15T20:58:25.601Z,13.48
2022-10-15T21:01:27.056Z,13.45
2022-10-15T21:04:28.510Z,13.39
2022-10-15T21:07:30.051Z,13.35
2022-10-15T21:10:31.781Z,13.29
2022-10-15T21:13:33.875Z,13.25
2022-10-15T21:16:35.259Z,13.20
2022-10-15T21:19:36.752Z,13.21
2022-10-15T21:22:38.166Z,13.23
2022-10-15T21:28:46.700Z,13.16
2022-10-15T21:31:48.202Z,13.08
2022-10-15T21:34:49.546Z,13.04
2022-10-15T21:37:50.917Z,13.02
2022-10-15T21:40:52.271Z,12.97
2022-10-15T21:43:53.849Z,12.94
2022-10-15T21:46:55.198Z,12.92
2022-10-15T21:49:56.541Z,12.90
2022-10-15T21:52:57.948Z,12.88
2022-10-15T21:55:59.556Z,12.86
2022-10-15T21:59:01.154Z,12.85
2022-10-15T22:02:02.704Z,12.80
2022-10-15T22:05:04.446Z,12.75
2022-10-15T22:08:06.584Z,12.73
2022-10-15T22:11:09.138Z,12.69
2022-10-15T22:14:12.239Z,12.66
2022-10-15T22:17:13.596Z,12.66
2022-10-15T22:20:15.323Z,12.67
2022-10-15T22:23:17.007Z,12.66
2022-10-15T22:26:19.984Z,12.65
2022-10-15T22:29:24.493Z,12.59
2022-10-15T22:32:26.090Z,12.54
2022-10-15T22:35:27.762Z,12.52
2022-10-15T22:38:29.599Z,12.48
2022-10-15T22:41:33.800Z,12.44
2022-10-15T22:44:35.242Z,12.40
2022-10-15T22:47:36.560Z,12.38
2022-10-15T22:50:37.886Z,12.35
2022-10-15T22:53:40.166Z,12.35
2022-10-15T22:56:41.577Z,12.32
2022-10-15T22:59:42.934Z,12.31
2022-10-15T23:02:47.197Z,12.29
2022-10-15T23:05:53.259Z,12.27
2022-10-15T23:08:55.266Z,12.23
2022-10-15T23:11:56.654Z,12.20
2022-10-15T23:14:57.975Z,12.17
2022-10-15T23:17:59.326Z,12.16
2022-10-15T23:21:12.211Z,12.17
2022-10-15T23:24:14.885Z,12.19
2022-10-15T23:27:16.265Z,12.17
2022-10-15T23:30:24.816Z,12.18
2022-10-15T23:33:26.614Z,12.17
2022-10-15T23:36:29.455Z,12.18
2022-10-15T23:39:30.777Z,12.15
2022-10-15T23:42:32.108Z,12.14
2022-10-15T23:45:35.743Z,12.14
2022-10-15T23:48:39.575Z,12.13
2022-10-15T23:51:40.916Z,12.13
2022-10-15T23:54:42.255Z,12.15
2022-10-15T23:57:43.583Z,12.16
